Portada
METAR-TAF:

METAR-TAF

Aeroports :

Udaipur, Índia

latitud: 24-37-04N, longitud: 73-53-46E, altitud: 513 m

Observació

L'informe es va fer fa 5 hores i 12 minuts, a les 14:00 UTC
Vent calma
Temperatura 25°C
Humitat 69%
Pressió 1015 hPa
Visibilitat: 5000 m
Escasses núvols a una alçada de 3000 ft
calitja

METAR: VAUD 161400Z 00000KT 5000 HZ FEW030 25/19 Q1015 NOSIG

Hora: 00:42 (19:12 UTC)

Pronòstic

L'informe es va fer fa 8 hores i 12 minuts, a les 11:00 UTC
Pronòstic vàlid del 16 a les 12 UTC al 16 a les 21 UTC
Vent 2 kt amb direcció variable
Visibilitat: 5000 m
Escasses núvols a una alçada de 3000 ft
calitja
Evolucionant progressivament
l' 16 a les 13 UTC al 16 a les 15 UTC
Vent kt del Nord
Visibilitat: 3000 m
calitja

TAF: VAUD 161100Z 1612/1621 VRB02KT 5000 HZ FEW030 BECMG 1613/1615 00000KT 3000 HZ NSC

Observacions i pronòstics meteorològics de més de 4000 aeroports (METAR i TAF).

Les estacions disponibles són els punts grocs i vermells al mapa.

Posi el ratolí al punt desitjat per veure el nom de l'estació.

Feu clic per veure les observacions i els pronòstics meteorològics.

Per canviar el mapa: feu clic els botons verds amb una creu de color negre per apropar; al botó verd amb un guió per allunyar la imatge; o en les fletxes verdes per a mapes adjacents.


METAR-TAF: